LLET

Details ICAO LLET (ETH)
Name EILAT
Region Israel
Timezone Asia/Jerusalem (UTC+2.0)
Plans Departing 77
Arriving 94
Stats Elevation 42 ft / 13 m (AMSL)
Location 29.561268° 34.960111°
Runways 1
Magnetic Variation 4.430° E
Sunrise 2017-12-14 04:28:14 UTC / 2017-12-14 06:28:14 Local
Sunset 2017-12-14 14:44:10 UTC / 2017-12-14 16:44:10 Local
Advertisement - Login to hide

Runways

ID Width Length Bearing (true) Bearing (mag) Surface Threshold Offset Overrun Length
03 89 ft / 27 m 6,249 ft / 1,905 m 27.93° 23.50° Asphalt 945 ft / 288 m 125 ft / 38 m
21 89 ft / 27 m 6,249 ft / 1,905 m 207.93° 203.50° Asphalt 0 ft / 0 m 0 ft / 0 m

Map

Weather


0- 5 10 15 20 25 30 35+ Temperature / ° C

Clouds and Precipitation
Forecast for 2017-12-14 12:00 UTC. Updated 40 minutes ago

Ground ~20,000 ft ~40,000 ft Winds

METAR

LLET 140650Z 02010KT 9999 SCT050 18/10 Q1021 RMK REP AT 0607Z CLD 4800FT 18KM N OF AD

TAF

TAF LLET 140506Z 1406/1506 01008KT 9999 SCT050 BECMG 1407/1409 02012KT FEW045 BECMG 1418/1420 35008KT TX25/1412Z TN13/1504Z

Frequencies

Recorded 132.55 MHz INFO
Tower 121.80 MHz TWR
Tower 119.00 MHz TWR
Warning: Do not use this data for real-world aviation or navigation. No guarantee of current accuracy is given.